Time;durP1;ratioP1;P1;durP2;ratioP2;P2;SDS_P1;SDS_P2;PMS_P1;PMS_P2;Temp;Humidity;BMP_temperature;BMP_pressure;BME280_temperature;BME280_humidity;BME280_pressure;Samples;Min_cycle;Max_cycle;Signal;HPM_P1;HPM_P2
2020/12/27 00:01:02;;;;;;;14.13;10.35;;;;;;;;;;4957050;28;20047;-80
2020/12/27 00:03:28;;;;;;;15.88;10.63;;;;;;;;;;4963691;28;20054;-80
2020/12/27 00:05:54;;;;;;;18.20;9.88;;;;;;;;;;4957659;28;20425;-79
2020/12/27 00:08:20;;;;;;;15.23;10.52;;;;;;;;;;4965276;28;20053;-79
2020/12/27 00:10:46;;;;;;;15.30;10.05;;;;;;;;;;4961293;28;20989;-80
2020/12/27 00:13:12;;;;;;;15.68;10.38;;;;;;;;;;4966153;28;20046;-81
2020/12/27 00:15:39;;;;;;;14.73;10.20;;;;;;;;;;4959542;28;20113;-80
2020/12/27 00:18:05;;;;;;;14.23;9.82;;;;;;;;;;4967942;28;20516;-79
2020/12/27 00:20:31;;;;;;;14.90;9.65;;;;;;;;;;4959076;28;20047;-80
2020/12/27 00:23:02;;;;;;;13.05;9.05;;;;;;;;;;4959966;28;20053;-80
2020/12/27 00:25:28;;;;;;;14.23;8.98;;;;;;;;;;4968783;28;20050;-81
2020/12/27 00:27:54;;;;;;;13.20;8.57;;;;;;;;;;4961087;28;20047;-80
2020/12/27 00:30:20;;;;;;;16.58;9.65;;;;;;;;;;4960981;28;20056;-81
2020/12/27 00:32:46;;;;;;;12.32;9.50;;;;;;;;;;4965615;28;20053;-79
2020/12/27 00:35:12;;;;;;;15.30;9.80;;;;;;;;;;4968155;28;20339;-81
2020/12/27 00:37:38;;;;;;;13.75;8.77;;;;;;;;;;4968401;28;20493;-80
2020/12/27 00:40:05;;;;;;;15.40;9.60;;;;;;;;;;4968158;28;20059;-81
2020/12/27 00:42:31;;;;;;;16.48;8.40;;;;;;;;;;4968732;28;20055;-81
2020/12/27 00:44:57;;;;;;;14.00;9.05;;;;;;;;;;4965419;28;20558;-81
2020/12/27 00:47:23;;;;;;;14.13;8.32;;;;;;;;;;4963112;28;22285;-82
2020/12/27 00:49:49;;;;;;;13.10;8.60;;;;;;;;;;4965250;28;20074;-80
2020/12/27 00:52:16;;;;;;;12.02;8.45;;;;;;;;;;4969713;28;20106;-80
2020/12/27 00:54:42;;;;;;;14.75;8.60;;;;;;;;;;4951537;28;20046;-81
2020/12/27 00:57:08;;;;;;;14.07;8.15;;;;;;;;;;4966489;28;20390;-81
2020/12/27 00:59:34;;;;;;;12.70;8.38;;;;;;;;;;4969224;28;20053;-81
2020/12/27 01:02:00;;;;;;;14.70;9.45;;;;;;;;;;4964073;28;20058;-79
2020/12/27 01:04:26;;;;;;;11.65;8.45;;;;;;;;;;4961292;28;20051;-81
2020/12/27 01:06:52;;;;;;;12.95;8.35;;;;;;;;;;4969353;28;20394;-86
2020/12/27 01:09:18;;;;;;;16.70;8.73;;;;;;;;;;4967944;28;20057;-83
2020/12/27 01:11:45;;;;;;;13.68;8.38;;;;;;;;;;4964430;28;20138;-82
2020/12/27 01:14:13;;;;;;;16.55;7.57;;;;;;;;;;4965518;28;20046;-82
2020/12/27 01:16:39;;;;;;;15.13;8.52;;;;;;;;;;4962951;28;20135;-81
2020/12/27 01:19:05;;;;;;;13.07;7.72;;;;;;;;;;4961933;28;20088;-79
2020/12/27 01:21:31;;;;;;;12.82;7.65;;;;;;;;;;4968646;28;20489;-80
2020/12/27 01:23:58;;;;;;;17.10;9.27;;;;;;;;;;4958892;28;20047;-78
2020/12/27 01:26:31;;;;;;;12.40;8.02;;;;;;;;;;4967072;28;20094;-80
2020/12/27 01:28:57;;;;;;;12.52;7.20;;;;;;;;;;4967457;28;20054;-79
2020/12/27 01:31:24;;;;;;;13.63;7.63;;;;;;;;;;4961512;28;20046;-78
2020/12/27 01:33:50;;;;;;;13.45;8.00;;;;;;;;;;4962817;28;20059;-80
2020/12/27 01:36:24;;;;;;;12.20;8.07;;;;;;;;;;4967138;28;20047;-80
2020/12/27 01:38:50;;;;;;;11.02;7.35;;;;;;;;;;4964824;28;20043;-81
2020/12/27 01:41:18;;;;;;;12.07;6.93;;;;;;;;;;4971873;28;20051;-81
2020/12/27 01:43:56;;;;;;;9.98;7.40;;;;;;;;;;4969028;28;20043;-80
2020/12/27 01:46:29;;;;;;;13.57;7.43;;;;;;;;;;4968797;28;20055;-79
2020/12/27 01:48:58;;;;;;;10.40;6.97;;;;;;;;;;4967030;28;20051;-80
2020/12/27 01:51:24;;;;;;;13.80;7.00;;;;;;;;;;4967027;28;20585;-79
2020/12/27 01:53:50;;;;;;;10.02;7.28;;;;;;;;;;4959180;28;20050;-79
2020/12/27 01:56:17;;;;;;;10.55;5.93;;;;;;;;;;4964667;28;20053;-78
2020/12/27 01:58:47;;;;;;;11.18;7.63;;;;;;;;;;4971470;28;20054;-80
2020/12/27 02:01:14;;;;;;;11.07;7.20;;;;;;;;;;4966395;28;20489;-80
2020/12/27 02:03:43;;;;;;;9.82;6.90;;;;;;;;;;4963035;28;20066;-79
2020/12/27 02:06:09;;;;;;;10.27;6.57;;;;;;;;;;4962641;28;20089;-80
2020/12/27 02:08:36;;;;;;;13.38;7.00;;;;;;;;;;4964920;28;20051;-79
2020/12/27 02:11:03;;;;;;;11.68;6.28;;;;;;;;;;4964846;28;20069;-79
2020/12/27 02:13:29;;;;;;;9.73;6.32;;;;;;;;;;4964461;28;20047;-80
2020/12/27 02:15:55;;;;;;;8.82;5.95;;;;;;;;;;4965302;28;20077;-80
2020/12/27 02:18:21;;;;;;;12.15;7.13;;;;;;;;;;4964720;28;20047;-79
2020/12/27 02:20:47;;;;;;;10.00;5.93;;;;;;;;;;4967097;28;20043;-80
2020/12/27 02:23:15;;;;;;;8.25;5.53;;;;;;;;;;4965506;28;20050;-80
2020/12/27 02:25:41;;;;;;;10.57;7.18;;;;;;;;;;4959788;28;20488;-79
2020/12/27 02:28:08;;;;;;;8.68;5.85;;;;;;;;;;4966401;28;20119;-79
2020/12/27 02:30:34;;;;;;;10.63;7.47;;;;;;;;;;4963648;28;20056;-80
2020/12/27 02:33:00;;;;;;;9.27;6.30;;;;;;;;;;4965455;28;20053;-80
2020/12/27 02:35:26;;;;;;;10.55;6.72;;;;;;;;;;4963071;28;20061;-78
2020/12/27 02:37:52;;;;;;;9.48;6.20;;;;;;;;;;4964281;28;20055;-78
2020/12/27 02:40:18;;;;;;;9.75;6.32;;;;;;;;;;4962932;28;20043;-79
2020/12/27 02:42:44;;;;;;;9.57;5.93;;;;;;;;;;4961690;28;20106;-80
2020/12/27 02:45:11;;;;;;;8.63;6.38;;;;;;;;;;4962700;28;20141;-79
2020/12/27 02:47:38;;;;;;;12.82;6.57;;;;;;;;;;4962122;28;20046;-79
2020/12/27 02:50:09;;;;;;;11.18;6.53;;;;;;;;;;4960624;28;20194;-78
2020/12/27 02:52:36;;;;;;;9.95;7.00;;;;;;;;;;4959871;28;20053;-79
2020/12/27 02:55:03;;;;;;;10.23;6.20;;;;;;;;;;4960627;28;20057;-79
2020/12/27 02:57:29;;;;;;;9.38;6.30;;;;;;;;;;4964892;28;20133;-79
2020/12/27 02:59:55;;;;;;;9.57;6.40;;;;;;;;;;4957357;28;20054;-80
2020/12/27 03:02:21;;;;;;;10.82;6.90;;;;;;;;;;4965904;28;20056;-79
2020/12/27 03:04:47;;;;;;;8.20;5.75;;;;;;;;;;4961340;28;20051;-79
2020/12/27 03:07:16;;;;;;;10.60;6.40;;;;;;;;;;4965684;28;20050;-78
2020/12/27 03:09:43;;;;;;;7.80;5.50;;;;;;;;;;4965663;28;20038;-78
2020/12/27 03:12:09;;;;;;;10.98;6.63;;;;;;;;;;4970967;28;20053;-77
2020/12/27 03:14:35;;;;;;;9.52;6.32;;;;;;;;;;4962803;28;20055;-77
2020/12/27 03:17:01;;;;;;;13.23;7.03;;;;;;;;;;4963254;28;20043;-78
2020/12/27 03:19:27;;;;;;;8.82;5.40;;;;;;;;;;4964389;28;20051;-78
2020/12/27 03:21:56;;;;;;;8.55;5.30;;;;;;;;;;4960734;28;20126;-78
2020/12/27 03:24:25;;;;;;;10.13;6.22;;;;;;;;;;4961174;28;20051;-78
2020/12/27 03:26:52;;;;;;;9.38;6.00;;;;;;;;;;4963258;28;20085;-77
2020/12/27 03:29:18;;;;;;;11.50;7.18;;;;;;;;;;4967950;28;20515;-79
2020/12/27 03:31:44;;;;;;;8.25;5.95;;;;;;;;;;4960119;28;20683;-78
2020/12/27 03:34:10;;;;;;;10.02;6.20;;;;;;;;;;4963624;28;20054;-79
2020/12/27 03:36:43;;;;;;;9.77;5.78;;;;;;;;;;4962417;28;20067;-78
2020/12/27 03:39:09;;;;;;;10.23;6.20;;;;;;;;;;4963742;28;20130;-79
2020/12/27 03:41:35;;;;;;;9.35;5.68;;;;;;;;;;4964542;28;20047;-79
2020/12/27 03:44:02;;;;;;;9.15;5.93;;;;;;;;;;4963130;28;20515;-80
2020/12/27 03:46:30;;;;;;;10.05;6.03;;;;;;;;;;4967421;28;20078;-80
2020/12/27 03:48:57;;;;;;;10.68;6.10;;;;;;;;;;4963412;28;20039;-80
2020/12/27 03:51:23;;;;;;;10.35;6.43;;;;;;;;;;4968527;28;20051;-79
2020/12/27 03:53:49;;;;;;;8.65;6.15;;;;;;;;;;4966911;28;20055;-80
2020/12/27 03:56:15;;;;;;;9.23;6.40;;;;;;;;;;4970931;28;20070;-80
2020/12/27 03:58:41;;;;;;;8.88;5.40;;;;;;;;;;4965885;28;20390;-79
2020/12/27 04:01:07;;;;;;;10.13;6.35;;;;;;;;;;4965279;28;20046;-81
2020/12/27 04:03:34;;;;;;;11.32;6.20;;;;;;;;;;4965456;28;20065;-81
2020/12/27 04:06:01;;;;;;;11.52;6.22;;;;;;;;;;4963442;28;20055;-80
2020/12/27 04:08:28;;;;;;;9.43;6.45;;;;;;;;;;4963062;28;20417;-80
2020/12/27 04:10:56;;;;;;;9.13;6.10;;;;;;;;;;4967713;28;20134;-82
2020/12/27 04:13:22;;;;;;;9.90;6.15;;;;;;;;;;4966689;28;20053;-82
2020/12/27 04:15:48;;;;;;;8.13;5.57;;;;;;;;;;4962021;28;20054;-81
2020/12/27 04:18:17;;;;;;;11.83;6.67;;;;;;;;;;4966665;28;20426;-79
2020/12/27 04:20:43;;;;;;;9.00;6.28;;;;;;;;;;4963346;28;20047;-80
2020/12/27 04:23:12;;;;;;;10.13;6.95;;;;;;;;;;4967635;28;20046;-81
2020/12/27 04:25:38;;;;;;;9.05;6.45;;;;;;;;;;4966691;28;20050;-81
2020/12/27 04:28:04;;;;;;;9.90;6.15;;;;;;;;;;4963425;28;20085;-81
2020/12/27 04:30:34;;;;;;;;;;;;;;;;;;4964643;28;20112;-80
2020/12/27 04:33:00;;;;;;;7.43;5.57;;;;;;;;;;4969750;28;19965;-80
2020/12/27 04:35:26;;;;;;;9.50;5.78;;;;;;;;;;4964431;28;20152;-80
2020/12/27 04:37:52;;;;;;;10.25;6.40;;;;;;;;;;4964421;28;20047;-80
2020/12/27 04:40:19;;;;;;;7.57;5.95;;;;;;;;;;4965438;28;20053;-79
2020/12/27 04:42:48;;;;;;;10.45;6.57;;;;;;;;;;4970566;28;20046;-80
2020/12/27 04:45:14;;;;;;;8.68;5.82;;;;;;;;;;4966763;28;20050;-81
2020/12/27 04:47:40;;;;;;;8.88;6.00;;;;;;;;;;4961908;28;20062;-81
2020/12/27 04:50:06;;;;;;;8.70;5.88;;;;;;;;;;4961424;28;20475;-80
2020/12/27 04:52:33;;;;;;;8.20;5.50;;;;;;;;;;4966336;28;20054;-79
2020/12/27 04:54:59;;;;;;;9.77;6.15;;;;;;;;;;4961682;28;20082;-81
2020/12/27 04:57:27;;;;;;;10.82;6.72;;;;;;;;;;4967688;28;20069;-80
2020/12/27 04:59:54;;;;;;;7.93;5.35;;;;;;;;;;4969831;28;20131;-81
2020/12/27 05:02:23;;;;;;;9.70;5.95;;;;;;;;;;4962218;28;20064;-80
2020/12/27 05:04:49;;;;;;;9.57;6.03;;;;;;;;;;4964035;28;20054;-81
2020/12/27 05:07:16;;;;;;;9.23;5.47;;;;;;;;;;4968322;28;20465;-81
2020/12/27 05:09:42;;;;;;;8.27;5.80;;;;;;;;;;4964584;28;20049;-83
2020/12/27 05:12:09;;;;;;;9.32;5.70;;;;;;;;;;4966810;28;20149;-81
2020/12/27 05:14:35;;;;;;;7.90;5.13;;;;;;;;;;4966047;28;20050;-81
2020/12/27 05:17:01;;;;;;;9.65;6.22;;;;;;;;;;4960575;28;20452;-81
2020/12/27 05:19:28;;;;;;;9.27;5.80;;;;;;;;;;4968304;28;20540;-79
2020/12/27 05:21:54;;;;;;;7.93;5.10;;;;;;;;;;4962484;28;20055;-81
2020/12/27 05:24:20;;;;;;;8.80;5.30;;;;;;;;;;4959101;28;20405;-81
2020/12/27 05:26:47;;;;;;;9.15;6.20;;;;;;;;;;4961131;28;20887;-81
2020/12/27 05:29:29;;;;;;;9.10;5.90;;;;;;;;;;4965203;28;20046;-81
2020/12/27 05:31:55;;;;;;;9.00;5.50;;;;;;;;;;4959334;28;20050;-81
2020/12/27 05:34:21;;;;;;;9.90;5.45;;;;;;;;;;4965519;28;20046;-80
2020/12/27 05:36:47;;;;;;;8.68;5.13;;;;;;;;;;4966765;28;20142;-81
2020/12/27 05:39:15;;;;;;;10.98;5.20;;;;;;;;;;4968381;28;20039;-80
2020/12/27 05:41:41;;;;;;;8.68;5.45;;;;;;;;;;4966205;28;20062;-81
2020/12/27 05:44:07;;;;;;;10.55;5.57;;;;;;;;;;4968962;28;20047;-81
2020/12/27 05:46:33;;;;;;;7.65;5.00;;;;;;;;;;4963210;28;20051;-79
2020/12/27 05:49:00;;;;;;;8.13;5.30;;;;;;;;;;4964268;28;20047;-79
2020/12/27 05:51:26;;;;;;;8.15;4.97;;;;;;;;;;4963838;28;20055;-79
2020/12/27 05:53:53;;;;;;;9.10;5.07;;;;;;;;;;4964232;28;20047;-79
2020/12/27 05:56:20;;;;;;;8.48;5.05;;;;;;;;;;4961788;28;20130;-80
2020/12/27 05:58:47;;;;;;;8.55;5.82;;;;;;;;;;4962253;28;20043;-82
2020/12/27 06:01:23;;;;;;;8.45;5.40;;;;;;;;;;4961728;28;20197;-82
2020/12/27 06:03:59;;;;;;;9.73;5.28;;;;;;;;;;4960551;28;20062;-81
2020/12/27 06:06:44;;;;;;;7.97;5.47;;;;;;;;;;4965080;28;20057;-82
2020/12/27 06:09:20;;;;;;;7.13;4.47;;;;;;;;;;4968015;28;20084;-79
2020/12/27 06:11:52;;;;;;;8.35;4.93;;;;;;;;;;4961606;28;20046;-78
2020/12/27 06:14:37;;;;;;;9.68;5.20;;;;;;;;;;4968237;28;20493;-79
2020/12/27 06:17:08;;;;;;;8.05;5.22;;;;;;;;;;4966576;28;20073;-80
2020/12/27 06:19:37;;;;;;;9.10;5.18;;;;;;;;;;4960911;28;20051;-77
2020/12/27 06:22:05;;;;;;;10.35;5.85;;;;;;;;;;4968243;28;20051;-78
2020/12/27 06:24:31;;;;;;;10.43;5.15;;;;;;;;;;4963792;28;20526;-80
2020/12/27 06:27:06;;;;;;;8.75;5.18;;;;;;;;;;4966426;28;20408;-80
2020/12/27 06:30:02;;;;;;;8.88;5.22;;;;;;;;;;4966098;28;20428;-81
2020/12/27 06:32:31;;;;;;;6.88;5.32;;;;;;;;;;4903095;29;20071;-82
2020/12/27 06:34:57;;;;;;;8.77;5.00;;;;;;;;;;4942645;28;20054;-80
2020/12/27 06:37:23;;;;;;;11.30;5.75;;;;;;;;;;4946219;28;20056;-80
2020/12/27 06:39:52;;;;;;;8.95;5.75;;;;;;;;;;4948201;28;20047;-80
2020/12/27 06:42:19;;;;;;;9.10;5.53;;;;;;;;;;4944009;28;20054;-79
2020/12/27 06:44:54;;;;;;;8.68;5.72;;;;;;;;;;4946831;28;20051;-77
2020/12/27 06:47:40;;;;;;;9.80;4.93;;;;;;;;;;4946838;28;20052;-80
2020/12/27 06:50:12;;;;;;;8.57;5.20;;;;;;;;;;4946969;28;20050;-80
2020/12/27 06:52:39;;;;;;;8.23;5.18;;;;;;;;;;4941758;28;20142;-80
2020/12/27 06:55:05;;;;;;;10.05;4.82;;;;;;;;;;4944138;28;20053;-80
2020/12/27 06:57:44;;;;;;;6.75;4.90;;;;;;;;;;4947182;28;20047;-78
2020/12/27 07:00:40;;;;;;;6.82;4.72;;;;;;;;;;4946490;28;20150;-80
2020/12/27 07:03:10;;;;;;;7.03;4.45;;;;;;;;;;4934590;28;20070;-78
2020/12/27 07:05:38;;;;;;;13.20;6.05;;;;;;;;;;4942579;28;20067;-78
2020/12/27 07:08:10;;;;;;;9.68;5.18;;;;;;;;;;4945384;28;20671;-80
2020/12/27 07:10:42;;;;;;;6.13;4.95;;;;;;;;;;4944952;28;20048;-79
2020/12/27 07:13:10;;;;;;;9.68;5.90;;;;;;;;;;4941647;28;20050;-77
2020/12/27 07:15:45;;;;;;;10.38;6.13;;;;;;;;;;4943436;28;20046;-78
2020/12/27 07:18:11;;;;;;;9.77;6.80;;;;;;;;;;4945911;28;20090;-78
2020/12/27 07:20:43;;;;;;;7.40;5.80;;;;;;;;;;4944089;28;20098;-77
2020/12/27 07:23:16;;;;;;;9.18;6.68;;;;;;;;;;4941026;28;20047;-78
2020/12/27 07:25:43;;;;;;;9.98;6.22;;;;;;;;;;4948069;28;20417;-78
2020/12/27 07:28:11;;;;;;;9.52;5.90;;;;;;;;;;4941461;29;20051;-78
2020/12/27 07:30:38;;;;;;;9.02;5.78;;;;;;;;;;4943484;29;20055;-77
2020/12/27 07:33:09;;;;;;;8.85;5.47;;;;;;;;;;4959833;28;20054;-78
2020/12/27 07:35:35;;;;;;;8.30;5.13;;;;;;;;;;4963148;28;20519;-77
2020/12/27 07:38:02;;;;;;;8.60;5.72;;;;;;;;;;4957645;28;20061;-79
2020/12/27 07:40:32;;;;;;;10.15;5.93;;;;;;;;;;4962488;28;20047;-78
2020/12/27 07:43:02;;;;;;;8.20;5.65;;;;;;;;;;4961550;28;20907;-78
2020/12/27 07:45:29;;;;;;;8.23;6.22;;;;;;;;;;4943015;28;20051;-79
2020/12/27 07:47:55;;;;;;;9.07;5.95;;;;;;;;;;4961821;28;20054;-79
2020/12/27 07:50:22;;;;;;;10.70;5.80;;;;;;;;;;4964514;28;20047;-78
2020/12/27 07:52:48;;;;;;;8.98;6.72;;;;;;;;;;4960189;28;20050;-78
2020/12/27 07:55:24;;;;;;;10.20;6.38;;;;;;;;;;4961537;28;20489;-79
2020/12/27 07:57:51;;;;;;;8.43;5.45;;;;;;;;;;4961897;28;20071;-79
2020/12/27 08:00:21;;;;;;;9.45;5.68;;;;;;;;;;4961954;28;20049;-75
2020/12/27 08:02:47;;;;;;;11.07;6.05;;;;;;;;;;4960552;28;20185;-79
2020/12/27 08:05:13;;;;;;;9.27;6.47;;;;;;;;;;4961509;28;20044;-78
2020/12/27 08:07:39;;;;;;;10.77;6.38;;;;;;;;;;4958742;28;20047;-78
2020/12/27 08:10:31;;;;;;;14.35;6.63;;;;;;;;;;4960120;28;20047;-79
2020/12/27 08:12:58;;;;;;;9.30;6.28;;;;;;;;;;4955807;28;20439;-79
2020/12/27 08:15:26;;;;;;;10.20;6.60;;;;;;;;;;4956904;28;20059;-77
2020/12/27 08:17:52;;;;;;;9.45;5.47;;;;;;;;;;4962587;28;20054;-78
2020/12/27 08:20:18;;;;;;;11.13;6.30;;;;;;;;;;4960461;28;20050;-78
2020/12/27 08:22:44;;;;;;;9.15;5.70;;;;;;;;;;4961340;28;20050;-80
2020/12/27 08:25:11;;;;;;;9.13;5.55;;;;;;;;;;4961230;28;20511;-77
2020/12/27 08:27:38;;;;;;;8.52;6.28;;;;;;;;;;4962362;28;20054;-79
2020/12/27 08:30:06;;;;;;;10.27;6.50;;;;;;;;;;4960167;28;20053;-80
2020/12/27 08:32:37;;;;;;;12.93;6.15;;;;;;;;;;4964834;28;20131;-78
2020/12/27 08:35:03;;;;;;;8.70;6.20;;;;;;;;;;4963266;28;20053;-76
2020/12/27 08:37:30;;;;;;;16.08;7.22;;;;;;;;;;4963712;28;20048;-79
2020/12/27 08:40:02;;;;;;;18.30;6.25;;;;;;;;;;4962843;28;20047;-77
2020/12/27 08:42:45;;;;;;;11.82;5.97;;;;;;;;;;4964739;28;20054;-77
2020/12/27 08:45:15;;;;;;;14.52;6.13;;;;;;;;;;4963993;28;20055;-77
2020/12/27 08:47:41;;;;;;;;;;;;;;;;;;4964045;28;20047;-76
2020/12/27 08:50:10;;;;;;;12.50;5.78;;;;;;;;;;4965932;28;20299;-77
2020/12/27 08:52:37;;;;;;;14.05;5.82;;;;;;;;;;4966124;28;20081;-76
2020/12/27 08:55:09;;;;;;;11.40;5.97;;;;;;;;;;4964100;28;20053;-79
2020/12/27 08:57:36;;;;;;;14.68;5.97;;;;;;;;;;4965011;28;20051;-78
2020/12/27 09:00:05;;;;;;;30.38;6.93;;;;;;;;;;4967083;28;20046;-79
2020/12/27 09:02:31;;;;;;;15.48;6.35;;;;;;;;;;4963245;28;20051;-79
2020/12/27 09:05:00;;;;;;;15.70;8.38;;;;;;;;;;4956853;28;20048;-78
2020/12/27 09:07:43;;;;;;;16.33;6.70;;;;;;;;;;4964152;28;20051;-79
2020/12/27 09:10:22;;;;;;;17.17;6.88;;;;;;;;;;4960560;28;20142;-79
2020/12/27 09:12:58;;;;;;;12.60;6.45;;;;;;;;;;4956325;28;20408;-79
2020/12/27 09:15:31;;;;;;;17.48;6.95;;;;;;;;;;4956866;28;20131;-78
2020/12/27 09:18:07;;;;;;;15.10;6.68;;;;;;;;;;4963274;28;20059;-78
2020/12/27 09:20:59;;;;;;;15.10;6.45;;;;;;;;;;4955355;28;20051;-79
2020/12/27 09:23:28;;;;;;;15.57;7.50;;;;;;;;;;4953901;28;20054;-79
2020/12/27 09:26:07;;;;;;;16.00;6.50;;;;;;;;;;4963368;28;20051;-78
2020/12/27 09:28:35;;;;;;;11.98;6.38;;;;;;;;;;4959173;28;20047;-78
2020/12/27 09:31:05;;;;;;;15.73;6.70;;;;;;;;;;4956048;28;20061;-79
2020/12/27 09:33:31;;;;;;;;;;;;;;;;;;4952037;28;20055;-79
2020/12/27 09:35:57;;;;;;;13.25;7.40;;;;;;;;;;4956457;28;19922;-78
2020/12/27 09:38:25;;;;;;;13.32;6.20;;;;;;;;;;4957194;28;20416;-79
2020/12/27 09:41:03;;;;;;;14.13;6.38;;;;;;;;;;4958496;28;20051;-79
2020/12/27 09:43:29;;;;;;;12.15;7.35;;;;;;;;;;4966296;28;20055;-79
2020/12/27 09:45:55;;;;;;;11.50;6.13;;;;;;;;;;4965348;28;20050;-80
2020/12/27 09:48:29;;;;;;;13.52;7.28;;;;;;;;;;4958219;28;20046;-80
2020/12/27 09:50:55;;;;;;;12.65;6.47;;;;;;;;;;4956157;28;20047;-79
2020/12/27 09:53:21;;;;;;;11.45;6.63;;;;;;;;;;4957876;28;20073;-79
2020/12/27 09:55:47;;;;;;;9.30;6.22;;;;;;;;;;4955503;28;20050;-78
2020/12/27 09:58:13;;;;;;;10.85;5.85;;;;;;;;;;4963921;28;20063;-79
2020/12/27 10:00:40;;;;;;;12.40;5.85;;;;;;;;;;4965465;28;20057;-80
2020/12/27 10:03:07;;;;;;;13.05;6.70;;;;;;;;;;4955966;28;20046;-79
2020/12/27 10:05:33;;;;;;;10.07;5.95;;;;;;;;;;4958887;28;20138;-79
2020/12/27 10:07:59;;;;;;;11.57;5.95;;;;;;;;;;4957637;28;20058;-79
2020/12/27 10:10:26;;;;;;;9.35;5.38;;;;;;;;;;4960730;28;20129;-79
2020/12/27 10:12:52;;;;;;;9.93;5.50;;;;;;;;;;4961438;28;20046;-79
2020/12/27 10:15:18;;;;;;;8.60;5.13;;;;;;;;;;4958600;28;20129;-78
2020/12/27 10:17:44;;;;;;;10.40;5.68;;;;;;;;;;4959362;28;20047;-78
2020/12/27 10:20:11;;;;;;;8.88;5.35;;;;;;;;;;4957452;28;20043;-77
2020/12/27 10:22:37;;;;;;;10.52;6.10;;;;;;;;;;4958113;28;20134;-78
2020/12/27 10:25:05;;;;;;;9.90;6.35;;;;;;;;;;4955148;28;20126;-79
2020/12/27 10:27:32;;;;;;;9.70;6.10;;;;;;;;;;4956038;28;20050;-78
2020/12/27 10:30:03;;;;;;;9.82;5.40;;;;;;;;;;4955377;28;20050;-79
2020/12/27 10:32:29;;;;;;;8.18;5.45;;;;;;;;;;4954259;28;20069;-79
2020/12/27 10:34:55;;;;;;;10.48;5.72;;;;;;;;;;4937016;29;20066;-79
2020/12/27 10:37:22;;;;;;;10.55;5.82;;;;;;;;;;4936193;29;20122;-79
2020/12/27 10:39:48;;;;;;;9.23;5.22;;;;;;;;;;4939614;29;20047;-79
2020/12/27 10:42:15;;;;;;;11.85;5.10;;;;;;;;;;4939506;29;20087;-79
2020/12/27 10:44:41;;;;;;;7.40;4.82;;;;;;;;;;4939353;28;20043;-76
2020/12/27 10:47:08;;;;;;;7.78;5.57;;;;;;;;;;4941766;28;20066;-76
2020/12/27 10:49:34;;;;;;;9.23;5.63;;;;;;;;;;4947046;28;20043;-76
2020/12/27 10:52:00;;;;;;;11.70;6.10;;;;;;;;;;4943579;28;20053;-78
2020/12/27 10:54:29;;;;;;;8.25;5.13;;;;;;;;;;4943151;28;20066;-75
2020/12/27 10:56:55;;;;;;;10.82;7.05;;;;;;;;;;4941623;28;20039;-76
2020/12/27 10:59:21;;;;;;;7.22;5.40;;;;;;;;;;4942440;28;20047;-75
2020/12/27 11:01:48;;;;;;;9.48;5.85;;;;;;;;;;4939931;28;20066;-74
2020/12/27 11:04:14;;;;;;;16.60;6.47;;;;;;;;;;4945336;28;20047;-74
2020/12/27 11:06:40;;;;;;;9.20;5.20;;;;;;;;;;4945511;28;20130;-74
2020/12/27 11:09:07;;;;;;;10.13;6.25;;;;;;;;;;4944220;28;20421;-75
2020/12/27 11:11:36;;;;;;;9.50;5.22;;;;;;;;;;4925978;29;20055;-75
2020/12/27 11:14:03;;;;;;;10.50;6.20;;;;;;;;;;4938566;28;20461;-74
2020/12/27 11:16:31;;;;;;;14.88;6.15;;;;;;;;;;4942263;28;20054;-74
2020/12/27 11:18:58;;;;;;;11.05;5.82;;;;;;;;;;4944042;28;20403;-74
2020/12/27 11:21:24;;;;;;;8.20;4.82;;;;;;;;;;4944514;28;20047;-75
2020/12/27 11:23:50;;;;;;;8.93;5.32;;;;;;;;;;4943632;28;20497;-76
2020/12/27 11:26:17;;;;;;;10.25;5.38;;;;;;;;;;4947046;28;20079;-75
2020/12/27 11:28:44;;;;;;;12.00;5.82;;;;;;;;;;4942425;28;20051;-73
2020/12/27 11:31:11;;;;;;;7.75;4.85;;;;;;;;;;4943812;28;20518;-75
2020/12/27 11:33:37;;;;;;;10.75;5.18;;;;;;;;;;4959730;28;20046;-76
2020/12/27 11:36:03;;;;;;;9.63;4.93;;;;;;;;;;4959442;28;20077;-75
2020/12/27 11:38:29;;;;;;;8.35;5.35;;;;;;;;;;4965448;28;20051;-76
2020/12/27 11:41:01;;;;;;;11.20;5.10;;;;;;;;;;4965840;28;20144;-74
2020/12/27 11:43:27;;;;;;;6.32;4.63;;;;;;;;;;4957808;28;20051;-75
2020/12/27 11:45:53;;;;;;;10.70;5.07;;;;;;;;;;4956793;28;20063;-75
2020/12/27 11:48:19;;;;;;;10.55;6.90;;;;;;;;;;4962396;28;20046;-80
2020/12/27 11:50:45;;;;;;;74.72;25.30;;;;;;;;;;4957433;28;20059;-78
2020/12/27 11:53:12;;;;;;;59.20;22.40;;;;;;;;;;4960515;28;20050;-78
2020/12/27 11:55:41;;;;;;;52.85;21.10;;;;;;;;;;4960670;28;20043;-72
2020/12/27 11:58:07;;;;;;;48.00;18.52;;;;;;;;;;4962558;28;20055;-76
2020/12/27 12:00:33;;;;;;;39.88;18.13;;;;;;;;;;5024982;23;20063;-78
2020/12/27 12:02:59;;;;;;;51.90;18.42;;;;;;;;;;5038381;28;20041;-76
2020/12/27 12:05:26;;;;;;;63.17;22.38;;;;;;;;;;5039438;28;20150;-73
2020/12/27 12:07:52;;;;;;;60.00;22.63;;;;;;;;;;5045553;28;20367;-80
2020/12/27 12:10:19;;;;;;;63.22;22.95;;;;;;;;;;5042989;28;20045;-79
2020/12/27 12:12:45;;;;;;;60.20;21.67;;;;;;;;;;5043937;28;20045;-79
2020/12/27 12:15:14;;;;;;;58.45;21.55;;;;;;;;;;5042528;28;20732;-77
2020/12/27 12:17:40;;;;;;;44.75;19.33;;;;;;;;;;5041608;28;20069;-77
2020/12/27 12:20:06;;;;;;;40.15;18.90;;;;;;;;;;5047136;28;20132;-78
2020/12/27 12:22:32;;;;;;;49.15;20.17;;;;;;;;;;5042606;28;20164;-78
2020/12/27 12:24:58;;;;;;;57.83;18.58;;;;;;;;;;5041747;28;20041;-78
2020/12/27 12:27:25;;;;;;;42.42;17.55;;;;;;;;;;5020652;28;20053;-77
2020/12/27 12:29:51;;;;;;;43.13;18.20;;;;;;;;;;5041423;28;20046;-77
2020/12/27 12:32:17;;;;;;;46.70;19.95;;;;;;;;;;5045720;28;20049;-78
2020/12/27 12:34:43;;;;;;;43.95;17.70;;;;;;;;;;5043140;28;20045;-78
2020/12/27 12:37:09;;;;;;;48.38;17.52;;;;;;;;;;5038412;28;20760;-77
2020/12/27 12:39:35;;;;;;;33.22;15.65;;;;;;;;;;5041433;28;20475;-76
2020/12/27 12:42:02;;;;;;;43.58;15.88;;;;;;;;;;5042349;28;20520;-77
2020/12/27 12:44:31;;;;;;;45.17;16.17;;;;;;;;;;5041497;28;20049;-78
2020/12/27 12:46:59;;;;;;;39.22;14.82;;;;;;;;;;5043966;28;20044;-79
2020/12/27 12:49:26;;;;;;;44.15;17.45;;;;;;;;;;5062286;28;20052;-80
2020/12/27 12:51:52;;;;;;;40.22;16.05;;;;;;;;;;5060437;28;20049;-79
2020/12/27 12:54:18;;;;;;;39.17;17.35;;;;;;;;;;5061235;28;20045;-80
2020/12/27 12:56:51;;;;;;;38.45;16.00;;;;;;;;;;5045349;28;20127;-80
2020/12/27 12:59:17;;;;;;;33.88;16.95;;;;;;;;;;5060215;28;20110;-79
2020/12/27 13:01:48;;;;;;;41.42;16.95;;;;;;;;;;5064793;28;20047;-79
2020/12/27 13:04:14;;;;;;;34.22;16.45;;;;;;;;;;5059709;28;20048;-78
2020/12/27 13:06:45;;;;;;;35.80;17.33;;;;;;;;;;5063135;28;20045;-79
2020/12/27 13:09:11;;;;;;;34.78;14.50;;;;;;;;;;5065315;28;20041;-79
2020/12/27 13:11:37;;;;;;;40.55;16.05;;;;;;;;;;5063164;28;20142;-79
2020/12/27 13:14:03;;;;;;;30.77;14.13;;;;;;;;;;5058075;28;20079;-80
2020/12/27 13:16:29;;;;;;;38.45;15.60;;;;;;;;;;5060660;28;20687;-79
2020/12/27 13:18:55;;;;;;;32.17;14.18;;;;;;;;;;5060153;28;20114;-79
2020/12/27 13:21:25;;;;;;;30.35;13.55;;;;;;;;;;5065261;28;20524;-80
2020/12/27 13:23:51;;;;;;;31.83;12.43;;;;;;;;;;5061215;28;20128;-78
2020/12/27 13:26:17;;;;;;;31.00;14.68;;;;;;;;;;5059266;28;20072;-79
2020/12/27 13:28:43;;;;;;;31.48;13.52;;;;;;;;;;5063241;28;20402;-80
2020/12/27 13:31:10;;;;;;;29.65;11.77;;;;;;;;;;5064092;28;20485;-79
2020/12/27 13:33:43;;;;;;;28.17;11.80;;;;;;;;;;5057766;28;20135;-80
2020/12/27 13:36:09;;;;;;;32.10;13.05;;;;;;;;;;5047212;28;20055;-80
2020/12/27 13:38:35;;;;;;;22.92;11.82;;;;;;;;;;5062547;28;20421;-80
2020/12/27 13:41:04;;;;;;;27.30;12.65;;;;;;;;;;5045390;28;20059;-79
2020/12/27 13:43:32;;;;;;;25.70;11.23;;;;;;;;;;5063237;28;20051;-78
2020/12/27 13:45:58;;;;;;;23.67;11.52;;;;;;;;;;5065623;28;20127;-78
2020/12/27 13:48:25;;;;;;;21.20;9.93;;;;;;;;;;5060344;28;20056;-78
2020/12/27 13:50:51;;;;;;;24.00;11.30;;;;;;;;;;5064997;28;20048;-78
2020/12/27 13:53:17;;;;;;;22.73;9.95;;;;;;;;;;5058708;28;20142;-79
2020/12/27 13:55:48;;;;;;;21.73;10.32;;;;;;;;;;5063363;28;20056;-77
2020/12/27 13:58:14;;;;;;;21.33;10.13;;;;;;;;;;5061520;28;20074;-82
2020/12/27 14:00:40;;;;;;;25.27;11.20;;;;;;;;;;5061475;28;20045;-77
2020/12/27 14:03:08;;;;;;;26.58;9.63;;;;;;;;;;5058713;28;20052;-78
2020/12/27 14:05:37;;;;;;;19.20;10.15;;;;;;;;;;5059213;28;20037;-76
2020/12/27 14:08:03;;;;;;;21.23;9.68;;;;;;;;;;5060515;28;20045;-85
2020/12/27 14:10:39;;;;;;;22.95;9.82;;;;;;;;;;5062408;28;20048;-79
2020/12/27 14:13:06;;;;;;;20.25;9.30;;;;;;;;;;5056857;28;20079;-81
2020/12/27 14:15:32;;;;;;;21.60;8.65;;;;;;;;;;5063211;28;20466;-80
2020/12/27 14:17:58;;;;;;;19.15;9.02;;;;;;;;;;5061961;28;20037;-80
2020/12/27 14:20:27;;;;;;;18.58;8.57;;;;;;;;;;5060063;28;20123;-80
2020/12/27 14:22:53;;;;;;;16.48;9.27;;;;;;;;;;5063534;28;20040;-77
2020/12/27 14:25:19;;;;;;;17.13;8.55;;;;;;;;;;5058153;28;20055;-75
2020/12/27 14:27:45;;;;;;;17.48;9.50;;;;;;;;;;5059101;28;20036;-83
2020/12/27 14:30:11;;;;;;;17.48;8.98;;;;;;;;;;5056421;28;20063;-71
2020/12/27 14:32:38;;;;;;;17.70;8.70;;;;;;;;;;5060757;28;20521;-72
2020/12/27 14:35:04;;;;;;;16.42;8.57;;;;;;;;;;5063850;28;20040;-77
2020/12/27 14:37:30;;;;;;;20.38;7.93;;;;;;;;;;5063038;28;20660;-76